createdAt,value
2023-01-27T00:00:35.901Z,100
2023-01-27T00:01:35.563Z,100
2023-01-27T00:02:38.362Z,100
2023-01-27T00:03:35.943Z,100
2023-01-27T00:04:36.312Z,100
2023-01-27T00:05:35.565Z,100
2023-01-27T00:06:37.077Z,100
2023-01-27T00:07:35.760Z,100
2023-01-27T00:08:35.827Z,100
2023-01-27T00:09:36.179Z,100
2023-01-27T00:10:35.088Z,100
2023-01-27T00:11:35.979Z,100
2023-01-27T00:12:36.248Z,100
2023-01-27T00:13:36.409Z,100
2023-01-27T00:14:36.262Z,100
2023-01-27T00:15:35.905Z,100
2023-01-27T00:16:36.283Z,100
2023-01-27T00:17:35.717Z,100
2023-01-27T00:18:36.239Z,100
2023-01-27T00:19:36.789Z,100
2023-01-27T00:20:36.051Z,100
2023-01-27T00:21:36.356Z,100
2023-01-27T00:22:36.664Z,100
2023-01-27T00:23:35.805Z,100
2023-01-27T00:24:35.508Z,100
2023-01-27T00:25:35.710Z,100
2023-01-27T00:26:36.065Z,100
2023-01-27T00:27:36.687Z,100
2023-01-27T00:28:36.439Z,100
2023-01-27T00:29:36.788Z,100
2023-01-27T00:30:37.047Z,100
2023-01-27T00:31:36.785Z,100
2023-01-27T00:32:36.696Z,100
2023-01-27T00:33:36.689Z,100
2023-01-27T00:34:36.033Z,100
2023-01-27T00:35:36.465Z,100
2023-01-27T00:36:37.051Z,100
2023-01-27T00:37:35.922Z,100
2023-01-27T00:38:35.659Z,100
2023-01-27T00:39:35.485Z,100
2023-01-27T00:40:36.553Z,100
2023-01-27T00:41:36.609Z,100
2023-01-27T00:42:36.693Z,100
2023-01-27T00:43:36.033Z,100
2023-01-27T00:44:36.106Z,100
2023-01-27T00:45:36.204Z,100
2023-01-27T00:46:36.481Z,100
2023-01-27T00:47:35.497Z,100
2023-01-27T00:48:35.494Z,100
2023-01-27T00:49:35.627Z,100
2023-01-27T00:50:36.081Z,100
2023-01-27T00:51:35.963Z,100
2023-01-27T00:52:36.059Z,100
2023-01-27T00:53:35.900Z,100
2023-01-27T00:54:35.531Z,100
2023-01-27T00:55:36.072Z,100
2023-01-27T00:56:36.090Z,100
2023-01-27T00:57:36.099Z,100
2023-01-27T00:58:36.600Z,100
2023-01-27T00:59:36.301Z,100
2023-01-27T01:00:35.588Z,100
2023-01-27T01:01:36.149Z,100
2023-01-27T01:02:37.353Z,100
2023-01-27T01:03:36.018Z,100
2023-01-27T01:04:35.615Z,100
2023-01-27T01:05:36.233Z,100
2023-01-27T01:06:36.132Z,100
2023-01-27T01:07:36.452Z,100
2023-01-27T01:08:35.511Z,100
2023-01-27T01:09:37.934Z,100
2023-01-27T01:10:35.704Z,100
2023-01-27T01:11:36.311Z,100
2023-01-27T01:12:35.734Z,100
2023-01-27T01:13:35.533Z,100
2023-01-27T01:14:35.645Z,100
2023-01-27T01:15:36.833Z,100
2023-01-27T01:16:35.714Z,100
2023-01-27T01:17:35.658Z,100
2023-01-27T01:18:36.129Z,100
2023-01-27T01:19:37.001Z,100
2023-01-27T01:20:35.997Z,100
2023-01-27T01:21:36.250Z,100
2023-01-27T01:22:35.783Z,100
2023-01-27T01:23:36.042Z,100
2023-01-27T01:24:35.743Z,100
2023-01-27T01:25:35.947Z,100
2023-01-27T01:26:36.590Z,100
2023-01-27T01:27:35.562Z,100
2023-01-27T01:28:36.183Z,100
2023-01-27T01:29:36.191Z,100
2023-01-27T01:30:35.567Z,100
2023-01-27T01:31:36.421Z,100
2023-01-27T01:32:35.477Z,100
2023-01-27T01:33:36.443Z,100
2023-01-27T01:34:36.024Z,100
2023-01-27T01:35:36.317Z,100
2023-01-27T01:36:36.226Z,100
2023-01-27T01:37:35.917Z,100
2023-01-27T01:38:35.842Z,100
2023-01-27T01:39:34.520Z,100
2023-01-27T01:40:36.271Z,100
2023-01-27T01:41:36.461Z,100
2023-01-27T01:42:36.668Z,100
2023-01-27T01:43:36.171Z,100
2023-01-27T01:44:35.897Z,100
2023-01-27T01:45:35.902Z,100
2023-01-27T01:46:35.944Z,100
2023-01-27T01:47:35.674Z,100
2023-01-27T01:48:35.705Z,100
2023-01-27T01:49:35.792Z,100
2023-01-27T01:50:36.827Z,100
2023-01-27T01:51:36.646Z,100
2023-01-27T01:52:36.631Z,100
2023-01-27T01:53:36.478Z,100
2023-01-27T01:54:36.021Z,100
2023-01-27T01:55:36.660Z,100
2023-01-27T01:56:36.595Z,100
2023-01-27T01:57:36.296Z,100
2023-01-27T01:58:36.123Z,100
2023-01-27T01:59:35.586Z,100
2023-01-27T02:00:36.327Z,100
2023-01-27T02:01:36.462Z,100
2023-01-27T02:02:36.415Z,100
2023-01-27T02:03:35.584Z,100
2023-01-27T02:04:35.865Z,100
2023-01-27T02:05:35.908Z,100
2023-01-27T02:06:35.608Z,100
2023-01-27T02:07:36.090Z,100
2023-01-27T02:08:35.749Z,100
2023-01-27T02:09:35.537Z,100
2023-01-27T02:10:35.825Z,100
2023-01-27T02:11:35.551Z,100
2023-01-27T02:12:36.353Z,100
2023-01-27T02:13:36.978Z,100
2023-01-27T02:14:36.468Z,100
2023-01-27T02:15:35.873Z,100
2023-01-27T02:16:35.745Z,100
2023-01-27T02:17:35.562Z,100
2023-01-27T02:18:36.696Z,100
2023-01-27T02:19:35.811Z,100
2023-01-27T02:20:35.878Z,100
2023-01-27T02:21:36.424Z,100
2023-01-27T02:22:36.742Z,100
2023-01-27T02:23:36.297Z,100
2023-01-27T02:25:36.698Z,100
2023-01-27T02:26:35.513Z,100
2023-01-27T02:27:36.858Z,100
2023-01-27T02:28:35.715Z,100
2023-01-27T02:29:35.555Z,100
2023-01-27T02:30:36.723Z,100
2023-01-27T02:31:36.639Z,100
2023-01-27T02:32:36.438Z,100
2023-01-27T02:33:35.885Z,100
2023-01-27T02:34:36.699Z,100
2023-01-27T02:35:36.438Z,100
2023-01-27T02:36:36.340Z,100
2023-01-27T02:37:35.922Z,100
2023-01-27T02:38:35.801Z,100
2023-01-27T02:39:36.115Z,100
2023-01-27T02:40:36.146Z,100
2023-01-27T02:41:36.235Z,100
2023-01-27T02:42:35.550Z,100
2023-01-27T02:43:35.559Z,100
2023-01-27T02:44:36.679Z,100
2023-01-27T02:45:35.979Z,100
2023-01-27T02:46:35.723Z,100
2023-01-27T02:47:36.141Z,100
2023-01-27T02:48:35.951Z,100
2023-01-27T02:49:35.794Z,100
2023-01-27T02:50:36.337Z,100
2023-01-27T02:51:36.184Z,100
2023-01-27T02:52:36.227Z,100
2023-01-27T02:53:36.611Z,100
2023-01-27T02:54:35.486Z,100
2023-01-27T02:55:35.501Z,100
2023-01-27T02:56:36.687Z,100
2023-01-27T02:57:35.732Z,100
2023-01-27T02:58:35.631Z,100
2023-01-27T02:59:35.468Z,100
2023-01-27T03:00:36.167Z,100
2023-01-27T03:01:36.300Z,100
2023-01-27T03:02:37.572Z,100
2023-01-27T03:03:35.716Z,100
2023-01-27T03:04:36.783Z,100
2023-01-27T03:05:35.687Z,100
2023-01-27T03:06:36.205Z,100
2023-01-27T03:07:36.087Z,100
2023-01-27T03:08:34.378Z,100
2023-01-27T03:09:35.899Z,100
2023-01-27T03:10:35.913Z,100
2023-01-27T03:11:35.821Z,100
2023-01-27T03:12:36.345Z,100
2023-01-27T03:13:36.365Z,100
2023-01-27T03:14:36.294Z,100
2023-01-27T03:15:36.252Z,100
2023-01-27T03:16:35.549Z,100
2023-01-27T03:17:36.126Z,100
2023-01-27T03:18:36.902Z,100
2023-01-27T03:19:35.840Z,100
2023-01-27T03:20:36.578Z,100
2023-01-27T03:21:36.702Z,100
2023-01-27T03:22:35.687Z,100
2023-01-27T03:23:35.587Z,100
2023-01-27T03:24:39.306Z,100
2023-01-27T03:25:35.912Z,100
2023-01-27T03:26:37.044Z,100
2023-01-27T03:27:36.130Z,100
2023-01-27T03:28:35.487Z,100
2023-01-27T03:29:35.623Z,100
2023-01-27T03:30:36.311Z,100
2023-01-27T03:31:36.506Z,100
2023-01-27T03:32:35.537Z,100
2023-01-27T03:33:36.873Z,100
2023-01-27T03:34:35.549Z,100
2023-01-27T03:35:35.931Z,100
2023-01-27T03:36:35.463Z,100
2023-01-27T03:37:36.148Z,100
2023-01-27T03:38:36.268Z,100
2023-01-27T03:39:36.158Z,100
2023-01-27T03:40:36.155Z,100
2023-01-27T03:41:35.817Z,100
2023-01-27T03:42:35.475Z,100
2023-01-27T03:43:35.838Z,100
2023-01-27T03:44:36.706Z,100
2023-01-27T03:45:36.757Z,100
2023-01-27T03:46:35.838Z,100
2023-01-27T03:47:35.624Z,100
2023-01-27T03:48:37.171Z,100
2023-01-27T03:49:35.460Z,100
2023-01-27T03:50:35.613Z,100
2023-01-27T03:51:36.478Z,100
2023-01-27T03:52:36.255Z,100
2023-01-27T03:53:36.194Z,100
2023-01-27T03:54:36.192Z,100
2023-01-27T03:55:36.105Z,100
2023-01-27T03:56:35.517Z,100
2023-01-27T03:57:35.890Z,100
2023-01-27T03:58:35.791Z,100
2023-01-27T03:59:36.827Z,100
2023-01-27T04:00:36.332Z,100
2023-01-27T04:01:36.592Z,100
2023-01-27T04:02:35.774Z,100
2023-01-27T04:03:36.207Z,100
2023-01-27T04:04:35.933Z,100
2023-01-27T04:05:36.016Z,100
2023-01-27T04:06:36.880Z,100
2023-01-27T04:07:35.834Z,100
2023-01-27T04:08:36.519Z,100
2023-01-27T04:09:35.459Z,100
2023-01-27T04:10:35.909Z,100
2023-01-27T04:11:36.207Z,100
2023-01-27T04:12:35.493Z,100
2023-01-27T04:13:36.637Z,100
2023-01-27T04:14:36.171Z,100
2023-01-27T04:15:36.043Z,100
2023-01-27T04:16:35.620Z,100
2023-01-27T04:17:34.884Z,100
2023-01-27T04:18:36.259Z,100
2023-01-27T04:19:38.196Z,100
2023-01-27T04:20:36.679Z,100
2023-01-27T04:21:36.842Z,100
2023-01-27T04:22:35.862Z,100
2023-01-27T04:23:36.072Z,100
2023-01-27T04:24:35.697Z,100
2023-01-27T04:25:35.790Z,100
2023-01-27T04:26:35.585Z,100
2023-01-27T04:27:35.861Z,100
2023-01-27T04:28:44.146Z,100
2023-01-27T04:29:36.578Z,100
2023-01-27T04:30:36.680Z,100
2023-01-27T04:31:35.674Z,100
2023-01-27T04:32:35.796Z,100
2023-01-27T04:33:35.993Z,100
2023-01-27T04:34:35.749Z,100
2023-01-27T04:35:38.903Z,100
2023-01-27T04:36:36.064Z,100
2023-01-27T04:37:35.854Z,100
2023-01-27T04:38:36.697Z,100
2023-01-27T04:39:36.936Z,100
2023-01-27T04:40:36.734Z,100
2023-01-27T04:41:36.247Z,100
2023-01-27T04:42:35.473Z,100
2023-01-27T04:43:35.993Z,100
2023-01-27T04:44:36.005Z,100
2023-01-27T04:45:35.858Z,100
2023-01-27T04:46:36.356Z,100
2023-01-27T04:47:36.058Z,100
2023-01-27T04:48:35.709Z,100
2023-01-27T04:49:36.092Z,100
2023-01-27T04:50:35.707Z,100
2023-01-27T04:51:36.794Z,100
2023-01-27T04:52:35.667Z,100
2023-01-27T04:53:35.457Z,100
2023-01-27T04:54:35.582Z,100
2023-01-27T04:55:36.020Z,100
2023-01-27T04:56:35.556Z,100
2023-01-27T04:57:36.027Z,100
2023-01-27T04:58:36.295Z,100
2023-01-27T04:59:37.350Z,100
2023-01-27T05:00:37.142Z,100
2023-01-27T05:01:34.846Z,100
2023-01-27T05:02:35.501Z,100
2023-01-27T05:03:36.024Z,100
2023-01-27T05:04:35.723Z,100
2023-01-27T05:05:35.951Z,100
2023-01-27T05:06:36.782Z,100
2023-01-27T05:07:36.415Z,100
2023-01-27T05:08:36.197Z,100
2023-01-27T05:09:35.635Z,100
2023-01-27T05:10:36.147Z,100
2023-01-27T05:11:36.076Z,100
2023-01-27T05:12:36.265Z,100
2023-01-27T05:13:36.080Z,100
2023-01-27T05:14:36.172Z,100
2023-01-27T05:15:36.343Z,100
2023-01-27T05:16:35.843Z,100
2023-01-27T05:17:36.175Z,100
2023-01-27T05:18:35.689Z,100
2023-01-27T05:19:36.138Z,100
2023-01-27T05:20:36.610Z,100
2023-01-27T05:21:36.232Z,100
2023-01-27T05:22:36.592Z,100
2023-01-27T05:23:34.286Z,100
2023-01-27T05:24:36.662Z,100
2023-01-27T05:25:35.774Z,100
2023-01-27T05:26:36.372Z,100
2023-01-27T05:27:36.281Z,100
2023-01-27T05:28:37.323Z,100
2023-01-27T05:29:36.182Z,100
2023-01-27T05:30:36.408Z,100
2023-01-27T05:31:36.568Z,100
2023-01-27T05:32:35.699Z,100
2023-01-27T05:33:36.654Z,100
2023-01-27T05:34:35.922Z,100
2023-01-27T05:35:36.130Z,100
2023-01-27T05:36:35.514Z,100
2023-01-27T05:37:35.751Z,100
2023-01-27T05:38:36.306Z,100
2023-01-27T05:39:36.057Z,100
2023-01-27T05:40:35.647Z,100
2023-01-27T05:41:36.066Z,100
2023-01-27T05:42:35.494Z,100
2023-01-27T05:43:35.726Z,100
2023-01-27T05:44:36.024Z,100
2023-01-27T05:45:34.502Z,100
2023-01-27T05:46:34.343Z,100
2023-01-27T05:47:35.592Z,100
2023-01-27T05:48:35.712Z,100
2023-01-27T05:49:36.656Z,100
2023-01-27T05:50:36.434Z,100
2023-01-27T05:51:35.980Z,100
2023-01-27T05:52:36.638Z,100
2023-01-27T05:53:35.531Z,100
2023-01-27T05:54:36.358Z,100
2023-01-27T05:55:36.182Z,100
2023-01-27T05:56:36.665Z,100
2023-01-27T05:57:36.372Z,100
2023-01-27T05:58:35.980Z,100
2023-01-27T05:59:36.032Z,100
2023-01-27T06:00:35.561Z,100
2023-01-27T06:01:36.432Z,100
2023-01-27T06:02:36.003Z,100
2023-01-27T06:03:36.101Z,100
2023-01-27T06:04:35.467Z,100
2023-01-27T06:05:35.744Z,100
2023-01-27T06:06:35.469Z,100
2023-01-27T06:07:36.192Z,100
2023-01-27T06:08:35.123Z,100
2023-01-27T06:09:36.916Z,100
2023-01-27T06:10:36.275Z,100
2023-01-27T06:11:36.189Z,100
2023-01-27T06:12:35.449Z,100
2023-01-27T06:13:36.353Z,100
2023-01-27T06:14:36.333Z,100
2023-01-27T06:15:35.858Z,100
2023-01-27T06:16:35.481Z,100
2023-01-27T06:17:36.854Z,100
2023-01-27T06:18:36.000Z,100
2023-01-27T06:19:35.797Z,100
2023-01-27T06:20:36.308Z,100
2023-01-27T06:21:35.709Z,100
2023-01-27T06:22:35.920Z,100
2023-01-27T06:23:36.114Z,100
2023-01-27T06:24:37.364Z,100
2023-01-27T06:25:35.826Z,100
2023-01-27T06:26:37.070Z,100
2023-01-27T06:27:35.781Z,100
2023-01-27T06:28:36.682Z,100
2023-01-27T06:29:35.921Z,100
2023-01-27T06:30:34.443Z,100
2023-01-27T06:31:36.674Z,100
2023-01-27T06:32:35.719Z,100
2023-01-27T06:33:35.722Z,100
2023-01-27T06:34:35.494Z,100
2023-01-27T06:35:35.912Z,100
2023-01-27T06:36:36.220Z,100
2023-01-27T06:37:35.640Z,100
2023-01-27T06:38:36.428Z,100
2023-01-27T06:39:35.825Z,100
2023-01-27T06:40:36.467Z,100
2023-01-27T06:41:35.520Z,100
2023-01-27T06:42:35.540Z,100
2023-01-27T06:43:35.732Z,100
2023-01-27T06:44:35.771Z,100
2023-01-27T06:45:36.614Z,100
2023-01-27T06:46:35.775Z,100
2023-01-27T06:47:37.120Z,100
2023-01-27T06:48:37.045Z,100
2023-01-27T06:49:36.100Z,100
2023-01-27T06:50:37.056Z,100
2023-01-27T06:51:36.725Z,100
2023-01-27T06:52:35.473Z,100
2023-01-27T06:53:35.917Z,100
2023-01-27T06:54:35.469Z,100
2023-01-27T06:55:35.849Z,100
2023-01-27T06:56:36.217Z,100
2023-01-27T06:57:36.712Z,100
2023-01-27T06:58:35.559Z,100
2023-01-27T06:59:36.092Z,100
2023-01-27T07:00:35.873Z,100
2023-01-27T07:01:35.706Z,100
2023-01-27T07:02:36.411Z,100
2023-01-27T07:03:35.791Z,100
2023-01-27T07:04:35.466Z,100
2023-01-27T07:05:36.608Z,100
2023-01-27T07:06:36.191Z,100
2023-01-27T07:07:36.201Z,100
2023-01-27T07:08:36.111Z,100
2023-01-27T07:09:51.508Z,100
2023-01-27T07:10:36.017Z,100
2023-01-27T07:11:35.485Z,100
2023-01-27T07:12:35.510Z,100
2023-01-27T07:13:36.138Z,100
2023-01-27T07:14:35.532Z,100
2023-01-27T07:15:35.441Z,100
2023-01-27T07:16:36.594Z,100
2023-01-27T07:17:35.468Z,100
2023-01-27T07:18:35.973Z,100
2023-01-27T07:19:36.076Z,100
2023-01-27T07:20:36.963Z,100
2023-01-27T07:21:35.591Z,100
2023-01-27T07:22:36.499Z,100
2023-01-27T07:23:36.954Z,100
2023-01-27T07:24:36.264Z,100
2023-01-27T07:25:35.524Z,100
2023-01-27T07:26:36.443Z,100
2023-01-27T07:27:35.534Z,100
2023-01-27T07:28:36.190Z,100
2023-01-27T07:29:36.314Z,100
2023-01-27T07:30:35.566Z,100
2023-01-27T07:31:35.466Z,100
2023-01-27T07:32:35.891Z,100
2023-01-27T07:33:36.024Z,100
2023-01-27T07:34:36.006Z,100
2023-01-27T07:35:36.829Z,100
2023-01-27T07:36:36.496Z,100
2023-01-27T07:37:38.350Z,100
2023-01-27T07:38:35.687Z,100
2023-01-27T07:39:36.077Z,100
2023-01-27T07:40:36.215Z,100
2023-01-27T07:41:36.543Z,100
2023-01-27T07:42:36.150Z,100
2023-01-27T07:43:37.153Z,100
2023-01-27T07:44:35.828Z,100
2023-01-27T07:45:35.981Z,100
2023-01-27T07:46:35.548Z,100
2023-01-27T07:47:35.457Z,100
2023-01-27T07:48:35.505Z,100
2023-01-27T07:49:36.113Z,100
2023-01-27T07:50:35.792Z,100
2023-01-27T07:51:35.765Z,100
2023-01-27T07:52:36.035Z,100
2023-01-27T07:53:36.800Z,100
2023-01-27T07:54:35.987Z,100
2023-01-27T07:55:35.535Z,100
2023-01-27T07:56:36.001Z,100
2023-01-27T07:57:36.213Z,100
2023-01-27T07:58:36.031Z,100
2023-01-27T07:59:36.636Z,100
2023-01-27T08:00:36.440Z,100
2023-01-27T08:01:35.653Z,100
2023-01-27T08:02:36.141Z,100
2023-01-27T08:03:35.547Z,100
2023-01-27T08:04:50.898Z,100
2023-01-27T08:05:36.371Z,100
2023-01-27T08:06:35.575Z,100
2023-01-27T08:07:35.868Z,100
2023-01-27T08:08:38.098Z,100
2023-01-27T08:09:35.578Z,100
2023-01-27T08:10:35.480Z,100
2023-01-27T08:11:35.492Z,100
2023-01-27T08:12:35.426Z,100
2023-01-27T08:13:35.639Z,100
2023-01-27T08:14:36.468Z,100
2023-01-27T08:15:35.903Z,100
2023-01-27T08:16:35.743Z,100
2023-01-27T08:17:36.623Z,100
2023-01-27T08:18:35.933Z,100
2023-01-27T08:19:35.789Z,100
2023-01-27T08:20:35.847Z,100
2023-01-27T08:21:35.550Z,100
2023-01-27T08:22:35.947Z,100
2023-01-27T08:23:35.091Z,100
2023-01-27T08:24:35.884Z,100
2023-01-27T08:25:35.774Z,100
2023-01-27T08:26:36.436Z,100
2023-01-27T08:27:35.816Z,100
2023-01-27T08:28:36.844Z,100
2023-01-27T08:29:35.510Z,100
2023-01-27T08:30:36.484Z,100
2023-01-27T08:31:36.491Z,100
2023-01-27T08:32:35.620Z,100
2023-01-27T08:33:35.526Z,100
2023-01-27T08:34:37.171Z,100
2023-01-27T08:35:36.246Z,100
2023-01-27T08:36:36.139Z,100
2023-01-27T08:37:35.428Z,100
2023-01-27T08:38:35.964Z,100
2023-01-27T08:39:36.592Z,100
2023-01-27T08:40:35.477Z,100
2023-01-27T08:41:35.825Z,100
2023-01-27T08:42:35.892Z,100
2023-01-27T08:43:35.710Z,100
2023-01-27T08:44:36.924Z,100
2023-01-27T08:45:34.748Z,100
2023-01-27T08:46:36.264Z,100
2023-01-27T08:47:36.294Z,100
2023-01-27T08:48:35.634Z,100
2023-01-27T08:49:36.051Z,100
2023-01-27T08:50:35.979Z,100
2023-01-27T08:51:35.427Z,100
2023-01-27T08:52:36.323Z,100
2023-01-27T08:53:36.492Z,100
2023-01-27T08:54:37.005Z,100
2023-01-27T08:55:36.654Z,100
2023-01-27T08:56:36.213Z,100
2023-01-27T08:57:37.120Z,100
2023-01-27T08:58:36.136Z,100
2023-01-27T08:59:35.790Z,100
2023-01-27T09:00:35.430Z,100
2023-01-27T09:01:35.915Z,100
2023-01-27T09:02:36.068Z,100
2023-01-27T09:03:35.645Z,100
2023-01-27T09:04:36.812Z,100
2023-01-27T09:05:35.433Z,100
2023-01-27T09:06:35.918Z,100
2023-01-27T09:07:36.505Z,100
2023-01-27T09:09:35.486Z,100
2023-01-27T09:10:35.733Z,100
2023-01-27T09:11:36.010Z,100
2023-01-27T09:12:35.436Z,100
2023-01-27T09:13:35.505Z,100
2023-01-27T09:14:35.887Z,100
2023-01-27T09:15:36.431Z,100
2023-01-27T09:16:35.500Z,100
2023-01-27T09:17:35.933Z,100
2023-01-27T09:18:35.764Z,100
2023-01-27T09:19:36.438Z,100
2023-01-27T09:20:36.034Z,100
2023-01-27T09:21:36.554Z,100
2023-01-27T09:22:35.474Z,100
2023-01-27T09:23:36.288Z,100
2023-01-27T09:24:36.780Z,100
2023-01-27T09:25:36.398Z,100
2023-01-27T09:26:36.036Z,100
2023-01-27T09:27:39.689Z,100
2023-01-27T09:28:36.403Z,100
2023-01-27T09:29:36.301Z,100
2023-01-27T09:30:35.539Z,100
2023-01-27T09:31:36.270Z,100
2023-01-27T09:32:36.204Z,100
2023-01-27T09:33:36.813Z,100
2023-01-27T09:34:36.006Z,100
2023-01-27T09:35:35.437Z,100
2023-01-27T09:36:36.104Z,100
2023-01-27T09:37:36.308Z,100
2023-01-27T09:38:35.900Z,100
2023-01-27T09:39:35.554Z,100
2023-01-27T09:40:35.962Z,100
2023-01-27T09:41:35.561Z,100
2023-01-27T09:42:35.699Z,100
2023-01-27T09:43:36.905Z,100
2023-01-27T09:44:35.573Z,100
2023-01-27T09:45:35.523Z,100
2023-01-27T09:46:35.741Z,100
2023-01-27T09:47:35.970Z,100
2023-01-27T09:48:35.572Z,100
2023-01-27T09:49:35.911Z,100
2023-01-27T09:50:36.258Z,100
2023-01-27T09:51:36.965Z,100
2023-01-27T09:52:46.767Z,100
2023-01-27T09:53:36.020Z,100
2023-01-27T09:54:35.732Z,100
2023-01-27T09:55:35.446Z,100
2023-01-27T09:56:35.475Z,100
2023-01-27T09:57:35.892Z,100
2023-01-27T09:58:36.078Z,100
2023-01-27T09:59:35.511Z,100
2023-01-27T10:00:36.523Z,100
2023-01-27T10:01:36.563Z,100
2023-01-27T10:02:36.205Z,100
2023-01-27T10:03:35.855Z,100
2023-01-27T10:04:35.771Z,100
2023-01-27T10:05:35.803Z,100
2023-01-27T10:06:35.826Z,100
2023-01-27T10:07:36.240Z,100
2023-01-27T10:08:36.965Z,100
2023-01-27T10:09:35.607Z,100
2023-01-27T10:10:35.653Z,100
2023-01-27T10:11:36.188Z,100
2023-01-27T10:12:35.737Z,100
2023-01-27T10:13:36.311Z,100
2023-01-27T10:14:34.741Z,100
2023-01-27T10:15:35.544Z,100
2023-01-27T10:16:35.568Z,100
2023-01-27T10:17:36.609Z,100
2023-01-27T10:18:35.928Z,100
2023-01-27T10:19:35.984Z,100
2023-01-27T10:20:35.573Z,100
2023-01-27T10:21:36.285Z,100
2023-01-27T10:22:36.234Z,100
2023-01-27T10:23:36.146Z,100
2023-01-27T10:24:35.432Z,100
2023-01-27T10:25:36.364Z,100
2023-01-27T10:26:35.423Z,100
2023-01-27T10:27:36.533Z,100
2023-01-27T10:28:36.430Z,100
2023-01-27T10:29:35.744Z,100
2023-01-27T10:30:36.501Z,100
2023-01-27T10:31:36.266Z,100
2023-01-27T10:32:35.635Z,100
2023-01-27T10:33:35.507Z,100
2023-01-27T10:34:35.500Z,100
2023-01-27T10:35:35.424Z,100
2023-01-27T10:36:35.506Z,100
2023-01-27T10:37:36.320Z,100
2023-01-27T10:38:35.821Z,100
2023-01-27T10:39:36.332Z,100
2023-01-27T10:40:35.523Z,100
2023-01-27T10:41:36.187Z,100
2023-01-27T10:42:36.164Z,100
2023-01-27T10:43:36.257Z,100
2023-01-27T10:44:35.781Z,100
2023-01-27T10:45:35.878Z,100
2023-01-27T10:46:35.913Z,100
2023-01-27T10:47:35.928Z,100
2023-01-27T10:48:36.762Z,100
2023-01-27T10:49:35.513Z,100
2023-01-27T10:50:36.647Z,100
2023-01-27T10:51:35.957Z,100
2023-01-27T10:52:37.798Z,100
2023-01-27T10:53:36.069Z,100
2023-01-27T10:54:35.895Z,100
2023-01-27T10:55:36.946Z,100
2023-01-27T10:56:36.049Z,100
2023-01-27T10:57:35.562Z,100
2023-01-27T10:58:35.450Z,100
2023-01-27T10:59:35.873Z,100
2023-01-27T11:01:19.361Z,100
2023-01-27T11:01:34.967Z,100
2023-01-27T11:02:35.969Z,100
2023-01-27T11:03:35.462Z,100
2023-01-27T11:04:35.493Z,100
2023-01-27T11:05:35.609Z,100
2023-01-27T11:06:36.216Z,100
2023-01-27T11:07:36.418Z,100
2023-01-27T11:08:36.211Z,100
2023-01-27T11:09:35.411Z,100
2023-01-27T11:10:36.049Z,100
2023-01-27T11:11:35.464Z,100
2023-01-27T11:12:36.042Z,100
2023-01-27T11:13:36.348Z,100
2023-01-27T11:14:38.547Z,100
2023-01-27T11:15:36.054Z,100
2023-01-27T11:16:36.725Z,100
2023-01-27T11:17:36.162Z,100
2023-01-27T11:18:36.010Z,100
2023-01-27T11:19:36.209Z,100
2023-01-27T11:20:36.856Z,100
2023-01-27T11:21:36.451Z,100
2023-01-27T11:23:35.978Z,100
2023-01-27T11:24:35.692Z,100
2023-01-27T11:25:35.519Z,100
2023-01-27T11:26:36.135Z,100
2023-01-27T11:27:35.506Z,100
2023-01-27T11:28:36.138Z,100
2023-01-27T11:29:35.881Z,100
2023-01-27T11:30:36.116Z,100
2023-01-27T11:31:37.747Z,100
2023-01-27T11:32:36.228Z,100
2023-01-27T11:33:35.519Z,100
2023-01-27T11:34:35.416Z,100
2023-01-27T11:35:37.124Z,100
2023-01-27T11:36:36.562Z,100
2023-01-27T11:37:35.429Z,100
2023-01-27T11:38:36.495Z,100
2023-01-27T11:39:35.544Z,100
2023-01-27T11:40:36.511Z,100
2023-01-27T11:41:35.897Z,100
2023-01-27T11:42:35.761Z,100
2023-01-27T11:43:36.077Z,100
2023-01-27T11:44:35.663Z,100
2023-01-27T11:45:36.375Z,100
2023-01-27T11:46:35.128Z,100
2023-01-27T11:47:36.272Z,100
2023-01-27T11:48:36.237Z,100
2023-01-27T11:49:36.482Z,100
2023-01-27T11:50:35.545Z,100
2023-01-27T11:51:36.176Z,100
2023-01-27T11:52:35.715Z,100
2023-01-27T11:53:35.785Z,100
2023-01-27T11:54:36.137Z,100
2023-01-27T11:55:35.447Z,100
2023-01-27T11:56:35.753Z,100
2023-01-27T11:57:35.822Z,100
2023-01-27T11:58:35.530Z,100
2023-01-27T11:59:35.527Z,100
2023-01-27T12:00:37.022Z,100
2023-01-27T12:01:35.597Z,100
2023-01-27T12:02:36.231Z,100
2023-01-27T12:03:35.625Z,100
2023-01-27T12:04:35.853Z,100
2023-01-27T12:05:36.079Z,100
2023-01-27T12:06:35.831Z,98.1
2023-01-27T12:07:35.995Z,97.6
2023-01-27T12:08:36.911Z,97.9
2023-01-27T12:09:36.510Z,99.7
2023-01-27T12:10:35.907Z,98.3
2023-01-27T12:11:35.727Z,97.5
2023-01-27T12:12:35.710Z,96.3
2023-01-27T12:13:36.131Z,95.1
2023-01-27T12:14:37.057Z,90.4
2023-01-27T12:15:36.246Z,87.6
2023-01-27T12:16:36.146Z,86.2
2023-01-27T12:17:36.161Z,85.7
2023-01-27T12:18:35.647Z,86.2
2023-01-27T12:19:35.423Z,87.1
2023-01-27T12:20:35.879Z,88
2023-01-27T12:21:35.798Z,89.1
2023-01-27T12:22:36.909Z,87.9
2023-01-27T12:23:36.160Z,90.7
2023-01-27T12:24:35.697Z,91.5
2023-01-27T12:25:35.833Z,89.5
2023-01-27T12:26:35.863Z,87.4
2023-01-27T12:27:35.903Z,82.9
2023-01-27T12:28:35.477Z,79.3
2023-01-27T12:30:36.434Z,74.4
2023-01-27T12:31:35.997Z,74.7
2023-01-27T12:32:35.940Z,74.8
2023-01-27T12:33:35.551Z,77.5
2023-01-27T12:34:35.561Z,77.6
2023-01-27T12:35:36.182Z,83.3
2023-01-27T12:36:35.551Z,86.7
2023-01-27T12:37:35.917Z,87.1
2023-01-27T12:38:36.853Z,86.6
2023-01-27T12:39:35.477Z,84.4
2023-01-27T12:40:35.980Z,84.5
2023-01-27T12:41:36.301Z,80.6
2023-01-27T12:42:36.318Z,74.9
2023-01-27T12:43:36.637Z,71
2023-01-27T12:44:36.127Z,71.4
2023-01-27T12:45:36.739Z,73.3
2023-01-27T12:46:36.086Z,72.7
2023-01-27T12:47:35.417Z,71.3
2023-01-27T12:48:36.163Z,65.1
2023-01-27T12:49:35.633Z,63.1
2023-01-27T12:50:35.537Z,64
2023-01-27T12:51:36.894Z,64.6
2023-01-27T12:52:34.846Z,66.8
2023-01-27T12:53:35.573Z,64.9
2023-01-27T12:54:35.416Z,63.3
2023-01-27T12:55:35.806Z,62.2
2023-01-27T12:56:36.031Z,63.9
2023-01-27T12:57:35.601Z,63.9
2023-01-27T12:58:36.474Z,64.9
2023-01-27T12:59:36.534Z,67.6
2023-01-27T13:00:36.277Z,69.6
2023-01-27T13:01:36.239Z,72.9
2023-01-27T13:02:35.923Z,72
2023-01-27T13:03:36.474Z,76.2
2023-01-27T13:04:37.433Z,79.5
2023-01-27T13:05:36.767Z,82.5
2023-01-27T13:06:35.751Z,82.5
2023-01-27T13:07:36.687Z,83.9
2023-01-27T13:08:35.962Z,84.9
2023-01-27T13:09:36.682Z,88
2023-01-27T13:10:36.279Z,91
2023-01-27T13:11:36.071Z,91.5
2023-01-27T13:12:36.090Z,94.6
2023-01-27T13:13:35.689Z,94.8
2023-01-27T13:14:35.110Z,96.6
2023-01-27T13:15:36.259Z,98
2023-01-27T13:16:35.962Z,100
2023-01-27T13:17:35.862Z,100
2023-01-27T13:18:36.064Z,100
2023-01-27T13:19:36.043Z,100
2023-01-27T13:20:35.710Z,100
2023-01-27T13:21:35.409Z,100
2023-01-27T13:22:36.900Z,100
2023-01-27T13:23:35.487Z,100
2023-01-27T13:24:35.411Z,100
2023-01-27T13:25:35.431Z,100
2023-01-27T13:26:35.840Z,100
2023-01-27T13:27:35.418Z,100
2023-01-27T13:28:51.189Z,100
2023-01-27T13:29:36.507Z,100
2023-01-27T13:30:35.467Z,100
2023-01-27T13:31:36.085Z,100
2023-01-27T13:32:36.527Z,100
2023-01-27T13:33:35.558Z,100
2023-01-27T13:34:35.925Z,100
2023-01-27T13:35:36.385Z,100
2023-01-27T13:36:36.097Z,100
2023-01-27T13:37:34.232Z,100
2023-01-27T13:38:36.528Z,100
2023-01-27T13:39:35.659Z,100
2023-01-27T13:40:36.130Z,100
2023-01-27T13:41:36.031Z,100
2023-01-27T13:42:36.011Z,100
2023-01-27T13:43:35.427Z,100
2023-01-27T13:44:35.513Z,100
2023-01-27T13:45:36.325Z,100
2023-01-27T13:46:36.118Z,100
2023-01-27T13:47:36.240Z,100
2023-01-27T13:48:35.831Z,100